sensor_id;sensor_type;location;lat;lon;timestamp;pressure;altitude;pressure_sealevel;temperature
80246;BMP280;69558;39.208;-77.226;2024-03-08T00:00:16;100284.06;;;17.30
80246;BMP280;69558;39.208;-77.226;2024-03-08T00:02:44;100283.53;;;17.34
80246;BMP280;69558;39.208;-77.226;2024-03-08T00:05:11;100278.50;;;17.33
80246;BMP280;69558;39.208;-77.226;2024-03-08T00:07:41;100289.59;;;17.35
80246;BMP280;69558;39.208;-77.226;2024-03-08T00:10:09;100293.84;;;17.36
80246;BMP280;69558;39.208;-77.226;2024-03-08T00:12:39;100301.09;;;17.34
80246;BMP280;69558;39.208;-77.226;2024-03-08T00:15:08;100304.88;;;17.31
80246;BMP280;69558;39.208;-77.226;2024-03-08T00:17:35;100320.06;;;17.36
80246;BMP280;69558;39.208;-77.226;2024-03-08T00:20:02;100325.50;;;17.34
80246;BMP280;69558;39.208;-77.226;2024-03-08T00:22:34;100332.56;;;17.34
80246;BMP280;69558;39.208;-77.226;2024-03-08T00:25:02;100342.03;;;17.35
80246;BMP280;69558;39.208;-77.226;2024-03-08T00:27:29;100334.38;;;17.33
80246;BMP280;69558;39.208;-77.226;2024-03-08T00:30:00;100349.09;;;17.34
80246;BMP280;69558;39.208;-77.226;2024-03-08T00:32:28;100350.72;;;17.35
80246;BMP280;69558;39.208;-77.226;2024-03-08T00:34:54;100348.84;;;17.29
80246;BMP280;69558;39.208;-77.226;2024-03-08T00:37:23;100347.63;;;17.32
80246;BMP280;69558;39.208;-77.226;2024-03-08T00:39:52;100349.28;;;17.33
80246;BMP280;69558;39.208;-77.226;2024-03-08T00:42:19;100347.81;;;17.30
80246;BMP280;69558;39.208;-77.226;2024-03-08T00:44:45;100350.44;;;17.30
80246;BMP280;69558;39.208;-77.226;2024-03-08T00:47:11;100341.75;;;17.30
80246;BMP280;69558;39.208;-77.226;2024-03-08T00:49:37;100336.84;;;17.27
80246;BMP280;69558;39.208;-77.226;2024-03-08T00:52:06;100346.81;;;17.31
80246;BMP280;69558;39.208;-77.226;2024-03-08T00:54:35;100357.16;;;17.33
80246;BMP280;69558;39.208;-77.226;2024-03-08T00:57:04;100370.28;;;17.33
80246;BMP280;69558;39.208;-77.226;2024-03-08T00:59:31;100365.16;;;17.31
80246;BMP280;69558;39.208;-77.226;2024-03-08T01:02:00;100367.97;;;17.30
80246;BMP280;69558;39.208;-77.226;2024-03-08T01:04:27;100370.28;;;17.33
80246;BMP280;69558;39.208;-77.226;2024-03-08T01:06:56;100371.91;;;17.34
80246;BMP280;69558;39.208;-77.226;2024-03-08T01:09:23;100376.47;;;17.32
80246;BMP280;69558;39.208;-77.226;2024-03-08T01:11:49;100374.38;;;17.27
80246;BMP280;69558;39.208;-77.226;2024-03-08T01:14:16;100388.34;;;17.28
80246;BMP280;69558;39.208;-77.226;2024-03-08T01:16:42;100393.41;;;17.29
80246;BMP280;69558;39.208;-77.226;2024-03-08T01:19:08;100400.06;;;17.32
80246;BMP280;69558;39.208;-77.226;2024-03-08T01:21:35;100409.59;;;17.33
80246;BMP280;69558;39.208;-77.226;2024-03-08T01:24:00;100410.56;;;17.32
80246;BMP280;69558;39.208;-77.226;2024-03-08T01:26:26;100420.22;;;17.31
80246;BMP280;69558;39.208;-77.226;2024-03-08T01:28:52;100427.28;;;17.31
80246;BMP280;69558;39.208;-77.226;2024-03-08T01:31:18;100425.47;;;17.31
80246;BMP280;69558;39.208;-77.226;2024-03-08T01:33:44;100433.34;;;17.31
80246;BMP280;69558;39.208;-77.226;2024-03-08T01:36:10;100427.81;;;17.26
80246;BMP280;69558;39.208;-77.226;2024-03-08T01:38:42;100439.56;;;17.30
80246;BMP280;69558;39.208;-77.226;2024-03-08T01:41:08;100435.53;;;17.28
80246;BMP280;69558;39.208;-77.226;2024-03-08T01:43:36;100444.22;;;17.28
80246;BMP280;69558;39.208;-77.226;2024-03-08T01:46:03;100446.97;;;17.27
80246;BMP280;69558;39.208;-77.226;2024-03-08T01:48:29;100456.31;;;17.29
80246;BMP280;69558;39.208;-77.226;2024-03-08T01:50:59;100447.50;;;17.22
80246;BMP280;69558;39.208;-77.226;2024-03-08T01:53:27;100460.91;;;17.27
80246;BMP280;69558;39.208;-77.226;2024-03-08T01:55:57;100461.75;;;17.28
80246;BMP280;69558;39.208;-77.226;2024-03-08T01:58:25;100462.69;;;17.27
80246;BMP280;69558;39.208;-77.226;2024-03-08T02:00:54;100467.94;;;17.27
80246;BMP280;69558;39.208;-77.226;2024-03-08T02:03:21;100464.69;;;17.25
80246;BMP280;69558;39.208;-77.226;2024-03-08T02:05:48;100470.75;;;17.25
80246;BMP280;69558;39.208;-77.226;2024-03-08T02:08:15;100465.69;;;17.24
80246;BMP280;69558;39.208;-77.226;2024-03-08T02:10:43;100475.16;;;17.25
80246;BMP280;69558;39.208;-77.226;2024-03-08T02:13:10;100473.06;;;17.20
80246;BMP280;69558;39.208;-77.226;2024-03-08T02:15:52;100482.22;;;17.24
80246;BMP280;69558;39.208;-77.226;2024-03-08T02:18:19;100492.69;;;17.24
80246;BMP280;69558;39.208;-77.226;2024-03-08T02:20:49;100491.91;;;17.24
80246;BMP280;69558;39.208;-77.226;2024-03-08T02:23:15;100499.78;;;17.24
80246;BMP280;69558;39.208;-77.226;2024-03-08T02:25:41;100496.19;;;17.16
80246;BMP280;69558;39.208;-77.226;2024-03-08T02:28:11;100512.22;;;17.22
80246;BMP280;69558;39.208;-77.226;2024-03-08T02:30:38;100514.69;;;17.23
80246;BMP280;69558;39.208;-77.226;2024-03-08T02:33:06;100510.28;;;17.24
80246;BMP280;69558;39.208;-77.226;2024-03-08T02:35:35;100519.13;;;17.23
80246;BMP280;69558;39.208;-77.226;2024-03-08T02:38:02;100525.50;;;17.20
80246;BMP280;69558;39.208;-77.226;2024-03-08T02:40:30;100524.88;;;17.18
80246;BMP280;69558;39.208;-77.226;2024-03-08T02:42:56;100521.75;;;17.14
80246;BMP280;69558;39.208;-77.226;2024-03-08T02:45:22;100530.25;;;17.16
80246;BMP280;69558;39.208;-77.226;2024-03-08T02:47:48;100535.16;;;17.20
80246;BMP280;69558;39.208;-77.226;2024-03-08T02:50:16;100540.75;;;17.16
80246;BMP280;69558;39.208;-77.226;2024-03-08T02:52:43;100547.47;;;17.19
80246;BMP280;69558;39.208;-77.226;2024-03-08T02:55:09;100546.81;;;17.17
80246;BMP280;69558;39.208;-77.226;2024-03-08T02:57:36;100554.66;;;17.17
80246;BMP280;69558;39.208;-77.226;2024-03-08T03:00:03;100553.72;;;17.18
80246;BMP280;69558;39.208;-77.226;2024-03-08T03:02:29;100560.91;;;17.16
80246;BMP280;69558;39.208;-77.226;2024-03-08T03:04:55;100548.47;;;17.10
80246;BMP280;69558;39.208;-77.226;2024-03-08T03:07:22;100555.84;;;17.14
80246;BMP280;69558;39.208;-77.226;2024-03-08T03:09:47;100564.84;;;17.12
80246;BMP280;69558;39.208;-77.226;2024-03-08T03:12:13;100562.88;;;17.14
80246;BMP280;69558;39.208;-77.226;2024-03-08T03:14:39;100562.22;;;17.12
80246;BMP280;69558;39.208;-77.226;2024-03-08T03:17:06;100567.63;;;17.10
80246;BMP280;69558;39.208;-77.226;2024-03-08T03:19:35;100566.50;;;17.05
80246;BMP280;69558;39.208;-77.226;2024-03-08T03:22:03;100565.84;;;17.11
80246;BMP280;69558;39.208;-77.226;2024-03-08T03:24:33;100566.81;;;17.10
80246;BMP280;69558;39.208;-77.226;2024-03-08T03:27:00;100566.66;;;17.11
80246;BMP280;69558;39.208;-77.226;2024-03-08T03:29:27;100572.72;;;17.12
80246;BMP280;69558;39.208;-77.226;2024-03-08T03:31:53;100568.47;;;17.11
80246;BMP280;69558;39.208;-77.226;2024-03-08T03:34:19;100568.78;;;17.08
80246;BMP280;69558;39.208;-77.226;2024-03-08T03:36:44;100579.75;;;17.11
80246;BMP280;69558;39.208;-77.226;2024-03-08T03:39:12;100583.56;;;17.09
80246;BMP280;69558;39.208;-77.226;2024-03-08T03:41:42;100581.09;;;17.07
80246;BMP280;69558;39.208;-77.226;2024-03-08T03:44:10;100594.66;;;17.11
80246;BMP280;69558;39.208;-77.226;2024-03-08T03:46:36;100584.03;;;17.04
80246;BMP280;69558;39.208;-77.226;2024-03-08T03:49:02;100593.38;;;17.07
80246;BMP280;69558;39.208;-77.226;2024-03-08T03:51:29;100597.63;;;17.08
80246;BMP280;69558;39.208;-77.226;2024-03-08T03:53:55;100598.28;;;17.10
80246;BMP280;69558;39.208;-77.226;2024-03-08T03:56:26;100596.00;;;17.07
80246;BMP280;69558;39.208;-77.226;2024-03-08T03:58:52;100603.03;;;17.06
80246;BMP280;69558;39.208;-77.226;2024-03-08T04:01:18;100606.47;;;17.07
80246;BMP280;69558;39.208;-77.226;2024-03-08T04:03:45;100601.75;;;17.02
80246;BMP280;69558;39.208;-77.226;2024-03-08T04:06:11;100602.56;;;17.03
80246;BMP280;69558;39.208;-77.226;2024-03-08T04:08:37;100608.66;;;17.03
80246;BMP280;69558;39.208;-77.226;2024-03-08T04:11:04;100602.91;;;17.00
80246;BMP280;69558;39.208;-77.226;2024-03-08T04:13:30;100610.41;;;17.03
80246;BMP280;69558;39.208;-77.226;2024-03-08T04:15:56;100612.22;;;17.02
80246;BMP280;69558;39.208;-77.226;2024-03-08T04:18:22;100612.41;;;17.01
80246;BMP280;69558;39.208;-77.226;2024-03-08T04:20:48;100602.41;;;16.96
80246;BMP280;69558;39.208;-77.226;2024-03-08T04:23:14;100608.94;;;17.00
80246;BMP280;69558;39.208;-77.226;2024-03-08T04:25:41;100607.66;;;16.96
80246;BMP280;69558;39.208;-77.226;2024-03-08T04:28:08;100604.72;;;16.91
80246;BMP280;69558;39.208;-77.226;2024-03-08T04:30:38;100611.09;;;16.97
80246;BMP280;69558;39.208;-77.226;2024-03-08T04:33:05;100608.47;;;16.97
80246;BMP280;69558;39.208;-77.226;2024-03-08T04:35:35;100616.97;;;16.99
80246;BMP280;69558;39.208;-77.226;2024-03-08T04:38:01;100614.22;;;16.92
80246;BMP280;69558;39.208;-77.226;2024-03-08T04:40:27;100627.81;;;16.96
80246;BMP280;69558;39.208;-77.226;2024-03-08T04:42:53;100630.59;;;16.94
80246;BMP280;69558;39.208;-77.226;2024-03-08T04:45:18;100643.69;;;16.94
80246;BMP280;69558;39.208;-77.226;2024-03-08T04:47:44;100643.69;;;16.94
80246;BMP280;69558;39.208;-77.226;2024-03-08T04:50:10;100644.69;;;16.93
80246;BMP280;69558;39.208;-77.226;2024-03-08T04:52:36;100648.94;;;16.94
80246;BMP280;69558;39.208;-77.226;2024-03-08T04:55:04;100654.34;;;16.93
80246;BMP280;69558;39.208;-77.226;2024-03-08T04:57:30;100653.34;;;16.94
80246;BMP280;69558;39.208;-77.226;2024-03-08T04:59:57;100656.13;;;16.92
80246;BMP280;69558;39.208;-77.226;2024-03-08T05:02:24;100658.94;;;16.91
80246;BMP280;69558;39.208;-77.226;2024-03-08T05:04:51;100662.53;;;16.90
80246;BMP280;69558;39.208;-77.226;2024-03-08T05:07:17;100661.88;;;16.88
80246;BMP280;69558;39.208;-77.226;2024-03-08T05:09:42;100672.19;;;16.89
80246;BMP280;69558;39.208;-77.226;2024-03-08T05:12:08;100667.94;;;16.88
80246;BMP280;69558;39.208;-77.226;2024-03-08T05:14:34;100665.47;;;16.87
80246;BMP280;69558;39.208;-77.226;2024-03-08T05:17:00;100671.03;;;16.83
80246;BMP280;69558;39.208;-77.226;2024-03-08T05:19:26;100669.56;;;16.89
80246;BMP280;69558;39.208;-77.226;2024-03-08T05:21:52;100680.22;;;16.88
80246;BMP280;69558;39.208;-77.226;2024-03-08T05:24:18;100679.41;;;16.87
80246;BMP280;69558;39.208;-77.226;2024-03-08T05:26:45;100676.78;;;16.87
80246;BMP280;69558;39.208;-77.226;2024-03-08T05:29:11;100676.13;;;16.85
80246;BMP280;69558;39.208;-77.226;2024-03-08T05:31:51;100677.94;;;16.84
80246;BMP280;69558;39.208;-77.226;2024-03-08T05:34:21;100682.31;;;16.84
80246;BMP280;69558;39.208;-77.226;2024-03-08T05:36:48;100690.19;;;16.84
80246;BMP280;69558;39.208;-77.226;2024-03-08T05:39:16;100690.19;;;16.84
80246;BMP280;69558;39.208;-77.226;2024-03-08T05:41:43;100695.44;;;16.84
80246;BMP280;69558;39.208;-77.226;2024-03-08T05:44:09;100691.38;;;16.81
80246;BMP280;69558;39.208;-77.226;2024-03-08T05:46:36;100683.34;;;16.83
80246;BMP280;69558;39.208;-77.226;2024-03-08T05:49:04;100678.25;;;16.81
80246;BMP280;69558;39.208;-77.226;2024-03-08T05:51:34;100682.31;;;16.84
80246;BMP280;69558;39.208;-77.226;2024-03-08T05:54:05;100684.13;;;16.83
80246;BMP280;69558;39.208;-77.226;2024-03-08T05:56:33;100679.06;;;16.74
80246;BMP280;69558;39.208;-77.226;2024-03-08T05:58:59;100686.44;;;16.78
80246;BMP280;69558;39.208;-77.226;2024-03-08T06:01:25;100684.00;;;16.77
80246;BMP280;69558;39.208;-77.226;2024-03-08T06:03:55;100695.78;;;16.81
80246;BMP280;69558;39.208;-77.226;2024-03-08T06:06:25;100697.72;;;16.79
80246;BMP280;69558;39.208;-77.226;2024-03-08T06:08:51;100692.97;;;16.74
80246;BMP280;69558;39.208;-77.226;2024-03-08T06:11:19;100702.16;;;16.78
80246;BMP280;69558;39.208;-77.226;2024-03-08T06:13:46;100700.00;;;16.74
80246;BMP280;69558;39.208;-77.226;2024-03-08T06:16:12;100701.81;;;16.73
80246;BMP280;69558;39.208;-77.226;2024-03-08T06:18:38;100705.94;;;16.76
80246;BMP280;69558;39.208;-77.226;2024-03-08T06:21:07;100715.72;;;16.74
80246;BMP280;69558;39.208;-77.226;2024-03-08T06:23:38;100708.06;;;16.72
80246;BMP280;69558;39.208;-77.226;2024-03-08T06:26:09;100720.16;;;16.73
80246;BMP280;69558;39.208;-77.226;2024-03-08T06:28:35;100722.63;;;16.75
80246;BMP280;69558;39.208;-77.226;2024-03-08T06:31:01;100727.72;;;16.76
80246;BMP280;69558;39.208;-77.226;2024-03-08T06:33:30;100729.66;;;16.74
80246;BMP280;69558;39.208;-77.226;2024-03-08T06:36:00;100727.88;;;16.75
80246;BMP280;69558;39.208;-77.226;2024-03-08T06:38:26;100720.34;;;16.72
80246;BMP280;69558;39.208;-77.226;2024-03-08T06:40:52;100733.25;;;16.73
80246;BMP280;69558;39.208;-77.226;2024-03-08T06:43:20;100723.94;;;16.71
80246;BMP280;69558;39.208;-77.226;2024-03-08T06:45:46;100735.25;;;16.71
80246;BMP280;69558;39.208;-77.226;2024-03-08T06:48:19;100737.50;;;16.74
80246;BMP280;69558;39.208;-77.226;2024-03-08T06:50:46;100739.31;;;16.74
80246;BMP280;69558;39.208;-77.226;2024-03-08T06:53:13;100731.81;;;16.71
80246;BMP280;69558;39.208;-77.226;2024-03-08T06:55:39;100743.94;;;16.72
80246;BMP280;69558;39.208;-77.226;2024-03-08T06:58:05;100734.28;;;16.72
80246;BMP280;69558;39.208;-77.226;2024-03-08T07:00:33;100722.44;;;16.68
80246;BMP280;69558;39.208;-77.226;2024-03-08T07:02:59;100735.25;;;16.71
80246;BMP280;69558;39.208;-77.226;2024-03-08T07:05:29;100735.41;;;16.70
80246;BMP280;69558;39.208;-77.226;2024-03-08T07:07:56;100736.22;;;16.70
80246;BMP280;69558;39.208;-77.226;2024-03-08T07:10:22;100726.09;;;16.67
80246;BMP280;69558;39.208;-77.226;2024-03-08T07:12:51;100738.19;;;16.76
80246;BMP280;69558;39.208;-77.226;2024-03-08T07:15:18;100724.94;;;16.78
80246;BMP280;69558;39.208;-77.226;2024-03-08T07:17:45;100720.34;;;16.80
80246;BMP280;69558;39.208;-77.226;2024-03-08T07:20:15;100713.75;;;16.84
80246;BMP280;69558;39.208;-77.226;2024-03-08T07:22:45;100716.91;;;16.88
80246;BMP280;69558;39.208;-77.226;2024-03-08T07:25:17;100718.38;;;16.90
80246;BMP280;69558;39.208;-77.226;2024-03-08T07:27:47;100718.88;;;16.94
80246;BMP280;69558;39.208;-77.226;2024-03-08T07:30:13;100711.34;;;16.91
80246;BMP280;69558;39.208;-77.226;2024-03-08T07:32:58;100710.03;;;16.95
80246;BMP280;69558;39.208;-77.226;2024-03-08T07:35:25;100707.91;;;16.90
80246;BMP280;69558;39.208;-77.226;2024-03-08T07:37:51;100706.91;;;16.91
80246;BMP280;69558;39.208;-77.226;2024-03-08T07:40:23;100698.91;;;16.84
80246;BMP280;69558;39.208;-77.226;2024-03-08T07:42:49;100704.63;;;16.88
80246;BMP280;69558;39.208;-77.226;2024-03-08T07:45:18;100702.16;;;16.87
80246;BMP280;69558;39.208;-77.226;2024-03-08T07:47:44;100698.03;;;16.84
80246;BMP280;69558;39.208;-77.226;2024-03-08T07:50:10;100697.59;;;16.80
80246;BMP280;69558;39.208;-77.226;2024-03-08T07:52:36;100696.13;;;16.78
80246;BMP280;69558;39.208;-77.226;2024-03-08T07:55:04;100709.53;;;16.83
80246;BMP280;69558;39.208;-77.226;2024-03-08T07:57:31;100715.75;;;16.82
80246;BMP280;69558;39.208;-77.226;2024-03-08T07:59:57;100722.81;;;16.81
80246;BMP280;69558;39.208;-77.226;2024-03-08T08:02:23;100727.22;;;16.81
80246;BMP280;69558;39.208;-77.226;2024-03-08T08:04:49;100739.50;;;16.80
80246;BMP280;69558;39.208;-77.226;2024-03-08T08:07:16;100743.75;;;16.81
80246;BMP280;69558;39.208;-77.226;2024-03-08T08:09:42;100734.75;;;16.76
80246;BMP280;69558;39.208;-77.226;2024-03-08T08:12:09;100746.38;;;16.81
80246;BMP280;69558;39.208;-77.226;2024-03-08T08:14:38;100750.00;;;16.80
80246;BMP280;69558;39.208;-77.226;2024-03-08T08:17:04;100750.81;;;16.81
80246;BMP280;69558;39.208;-77.226;2024-03-08T08:19:31;100753.44;;;16.81
80246;BMP280;69558;39.208;-77.226;2024-03-08T08:21:57;100744.75;;;16.80
80246;BMP280;69558;39.208;-77.226;2024-03-08T08:24:23;100735.75;;;16.75
80246;BMP280;69558;39.208;-77.226;2024-03-08T08:26:49;100743.09;;;16.79
80246;BMP280;69558;39.208;-77.226;2024-03-08T08:29:16;100743.09;;;16.79
80246;BMP280;69558;39.208;-77.226;2024-03-08T08:31:42;100736.56;;;16.75
80246;BMP280;69558;39.208;-77.226;2024-03-08T08:34:11;100739.50;;;16.80
80246;BMP280;69558;39.208;-77.226;2024-03-08T08:36:37;100741.44;;;16.78
80246;BMP280;69558;39.208;-77.226;2024-03-08T08:39:05;100734.41;;;16.79
80246;BMP280;69558;39.208;-77.226;2024-03-08T08:41:37;100723.31;;;16.77
80246;BMP280;69558;39.208;-77.226;2024-03-08T08:44:03;100719.69;;;16.78
80246;BMP280;69558;39.208;-77.226;2024-03-08T08:46:29;100706.28;;;16.73
80246;BMP280;69558;39.208;-77.226;2024-03-08T08:48:55;100719.84;;;16.76
80246;BMP280;69558;39.208;-77.226;2024-03-08T08:51:21;100723.31;;;16.77
80246;BMP280;69558;39.208;-77.226;2024-03-08T08:53:48;100721.66;;;16.76
80246;BMP280;69558;39.208;-77.226;2024-03-08T08:56:14;100712.97;;;16.75
80246;BMP280;69558;39.208;-77.226;2024-03-08T08:58:42;100712.63;;;16.78
80246;BMP280;69558;39.208;-77.226;2024-03-08T09:01:11;100721.00;;;16.82
80246;BMP280;69558;39.208;-77.226;2024-03-08T09:03:39;100732.31;;;16.82
80246;BMP280;69558;39.208;-77.226;2024-03-08T09:06:12;100746.88;;;16.85
80246;BMP280;69558;39.208;-77.226;2024-03-08T09:08:42;100761.44;;;16.88
80246;BMP280;69558;39.208;-77.226;2024-03-08T09:11:09;100764.72;;;16.90
80246;BMP280;69558;39.208;-77.226;2024-03-08T09:13:35;100775.03;;;16.91
80246;BMP280;69558;39.208;-77.226;2024-03-08T09:16:03;100762.09;;;16.90
80246;BMP280;69558;39.208;-77.226;2024-03-08T09:18:31;100785.84;;;16.96
80246;BMP280;69558;39.208;-77.226;2024-03-08T09:20:58;100790.94;;;16.98
80246;BMP280;69558;39.208;-77.226;2024-03-08T09:23:25;100807.31;;;17.00
80246;BMP280;69558;39.208;-77.226;2024-03-08T09:25:58;100809.59;;;17.03
80246;BMP280;69558;39.208;-77.226;2024-03-08T09:28:24;100809.13;;;16.99
80246;BMP280;69558;39.208;-77.226;2024-03-08T09:30:50;100814.53;;;16.98
80246;BMP280;69558;39.208;-77.226;2024-03-08T09:33:16;100817.31;;;16.96
80246;BMP280;69558;39.208;-77.226;2024-03-08T09:35:48;100826.16;;;16.95
80246;BMP280;69558;39.208;-77.226;2024-03-08T09:38:15;100834.50;;;16.91
80246;BMP280;69558;39.208;-77.226;2024-03-08T09:40:44;100849.25;;;16.92
80246;BMP280;69558;39.208;-77.226;2024-03-08T09:43:10;100845.97;;;16.90
80246;BMP280;69558;39.208;-77.226;2024-03-08T09:45:40;100841.22;;;16.85
80246;BMP280;69558;39.208;-77.226;2024-03-08T09:48:11;100849.53;;;16.89
80246;BMP280;69558;39.208;-77.226;2024-03-08T09:50:42;100848.09;;;16.86
80246;BMP280;69558;39.208;-77.226;2024-03-08T09:53:11;100853.81;;;16.81
80246;BMP280;69558;39.208;-77.226;2024-03-08T09:55:38;100841.13;;;16.69
80246;BMP280;69558;39.208;-77.226;2024-03-08T09:58:11;100877.06;;;16.84
80246;BMP280;69558;39.208;-77.226;2024-03-08T10:00:56;100872.97;;;16.82
80246;BMP280;69558;39.208;-77.226;2024-03-08T10:03:28;100883.44;;;16.82
80246;BMP280;69558;39.208;-77.226;2024-03-08T10:05:56;100894.75;;;16.82
80246;BMP280;69558;39.208;-77.226;2024-03-08T10:08:27;100890.50;;;16.81
80246;BMP280;69558;39.208;-77.226;2024-03-08T10:10:57;100898.50;;;16.80
80246;BMP280;69558;39.208;-77.226;2024-03-08T10:13:25;100896.72;;;16.80
80246;BMP280;69558;39.208;-77.226;2024-03-08T10:15:53;100893.41;;;16.78
80246;BMP280;69558;39.208;-77.226;2024-03-08T10:18:21;100893.88;;;16.74
80246;BMP280;69558;39.208;-77.226;2024-03-08T10:21:02;100890.44;;;16.73
80246;BMP280;69558;39.208;-77.226;2024-03-08T10:23:33;100899.94;;;16.74
80246;BMP280;69558;39.208;-77.226;2024-03-08T10:26:16;100898.50;;;16.72
80246;BMP280;69558;39.208;-77.226;2024-03-08T10:28:50;100900.91;;;16.73
80246;BMP280;69558;39.208;-77.226;2024-03-08T10:31:17;100904.56;;;16.72
80246;BMP280;69558;39.208;-77.226;2024-03-08T10:33:44;100907.31;;;16.71
80246;BMP280;69558;39.208;-77.226;2024-03-08T10:36:11;100898.97;;;16.67
80246;BMP280;69558;39.208;-77.226;2024-03-08T10:38:38;100913.66;;;16.68
80246;BMP280;69558;39.208;-77.226;2024-03-08T10:41:07;100913.31;;;16.63
80246;BMP280;69558;39.208;-77.226;2024-03-08T10:44:16;100917.81;;;16.71
80246;BMP280;69558;39.208;-77.226;2024-03-08T10:49:17;100913.66;;;16.68
80246;BMP280;69558;39.208;-77.226;2024-03-08T10:51:43;100919.72;;;16.69
80246;BMP280;69558;39.208;-77.226;2024-03-08T10:54:10;100928.41;;;16.69
80246;BMP280;69558;39.208;-77.226;2024-03-08T10:56:37;100932.34;;;16.73
80246;BMP280;69558;39.208;-77.226;2024-03-08T10:59:07;100917.47;;;16.74
80246;BMP280;69558;39.208;-77.226;2024-03-08T11:01:34;100926.84;;;16.76
80246;BMP280;69558;39.208;-77.226;2024-03-08T11:04:04;100918.50;;;16.81
80246;BMP280;69558;39.208;-77.226;2024-03-08T11:06:50;100927.00;;;16.83
80246;BMP280;69558;39.208;-77.226;2024-03-08T11:09:35;100929.63;;;16.83
80246;BMP280;69558;39.208;-77.226;2024-03-08T11:12:24;100933.03;;;16.83
80246;BMP280;69558;39.208;-77.226;2024-03-08T11:15:16;100938.81;;;16.87
80246;BMP280;69558;39.208;-77.226;2024-03-08T11:20:16;100936.69;;;16.91
80246;BMP280;69558;39.208;-77.226;2024-03-08T11:25:37;100933.59;;;16.95
80246;BMP280;69558;39.208;-77.226;2024-03-08T11:28:17;100933.75;;;16.94
80246;BMP280;69558;39.208;-77.226;2024-03-08T11:30:44;100914.38;;;16.78
80246;BMP280;69558;39.208;-77.226;2024-03-08T11:33:15;100936.88;;;16.89
80246;BMP280;69558;39.208;-77.226;2024-03-08T11:35:42;100938.16;;;16.85
80246;BMP280;69558;39.208;-77.226;2024-03-08T11:38:11;100936.13;;;16.79
80246;BMP280;69558;39.208;-77.226;2024-03-08T11:40:39;100950.44;;;16.84
80246;BMP280;69558;39.208;-77.226;2024-03-08T11:43:05;100943.88;;;16.80
80246;BMP280;69558;39.208;-77.226;2024-03-08T11:45:35;100957.78;;;16.81
80246;BMP280;69558;39.208;-77.226;2024-03-08T11:48:03;100963.69;;;16.83
80246;BMP280;69558;39.208;-77.226;2024-03-08T11:50:30;100964.84;;;16.80
80246;BMP280;69558;39.208;-77.226;2024-03-08T11:53:02;100961.06;;;16.75
80246;BMP280;69558;39.208;-77.226;2024-03-08T11:55:35;100973.69;;;16.79
80246;BMP280;69558;39.208;-77.226;2024-03-08T11:58:02;100956.75;;;16.74
80246;BMP280;69558;39.208;-77.226;2024-03-08T12:00:30;100966.94;;;16.77
80246;BMP280;69558;39.208;-77.226;2024-03-08T12:03:05;100964.97;;;16.71
80246;BMP280;69558;39.208;-77.226;2024-03-08T12:05:33;100971.53;;;16.75
80246;BMP280;69558;39.208;-77.226;2024-03-08T12:08:00;100979.69;;;16.72
80246;BMP280;69558;39.208;-77.226;2024-03-08T12:10:27;100984.13;;;16.71
80246;BMP280;69558;39.208;-77.226;2024-03-08T12:12:54;100982.31;;;16.72
80246;BMP280;69558;39.208;-77.226;2024-03-08T12:15:24;100972.31;;;16.67
80246;BMP280;69558;39.208;-77.226;2024-03-08T12:17:52;100981.34;;;16.73
80246;BMP280;69558;39.208;-77.226;2024-03-08T12:20:26;100983.97;;;16.73
80246;BMP280;69558;39.208;-77.226;2024-03-08T12:22:53;100978.38;;;16.68
80246;BMP280;69558;39.208;-77.226;2024-03-08T12:25:20;100979.34;;;16.67
80246;BMP280;69558;39.208;-77.226;2024-03-08T12:27:46;100988.84;;;16.68
80246;BMP280;69558;39.208;-77.226;2024-03-08T12:30:31;100989.53;;;16.70
80246;BMP280;69558;39.208;-77.226;2024-03-08T12:33:00;101002.94;;;16.67
80246;BMP280;69558;39.208;-77.226;2024-03-08T12:35:27;101004.03;;;16.64
80246;BMP280;69558;39.208;-77.226;2024-03-08T12:37:57;101013.22;;;16.68
80246;BMP280;69558;39.208;-77.226;2024-03-08T12:40:28;101007.00;;;16.61
80246;BMP280;69558;39.208;-77.226;2024-03-08T12:42:58;101021.28;;;16.67
80246;BMP280;69558;39.208;-77.226;2024-03-08T12:45:24;101015.34;;;16.65
80246;BMP280;69558;39.208;-77.226;2024-03-08T12:47:54;101021.28;;;16.67
80246;BMP280;69558;39.208;-77.226;2024-03-08T12:50:21;101023.34;;;16.63
80246;BMP280;69558;39.208;-77.226;2024-03-08T12:52:48;101038.78;;;16.66
80246;BMP280;69558;39.208;-77.226;2024-03-08T12:55:18;101022.91;;;16.68
80246;BMP280;69558;39.208;-77.226;2024-03-08T12:57:45;101006.19;;;16.61
80246;BMP280;69558;39.208;-77.226;2024-03-08T13:00:13;101017.81;;;16.66
80246;BMP280;69558;39.208;-77.226;2024-03-08T13:02:45;101029.28;;;16.73
80246;BMP280;69558;39.208;-77.226;2024-03-08T13:05:11;101042.28;;;16.75
80246;BMP280;69558;39.208;-77.226;2024-03-08T13:07:40;101047.00;;;16.71
80246;BMP280;69558;39.208;-77.226;2024-03-08T13:10:12;101054.03;;;16.79
80246;BMP280;69558;39.208;-77.226;2024-03-08T13:12:43;101049.50;;;16.81
80246;BMP280;69558;39.208;-77.226;2024-03-08T13:15:10;101049.16;;;16.84
80246;BMP280;69558;39.208;-77.226;2024-03-08T13:17:40;101053.31;;;16.87
80246;BMP280;69558;39.208;-77.226;2024-03-08T13:20:08;101053.31;;;16.87
80246;BMP280;69558;39.208;-77.226;2024-03-08T13:22:35;101052.81;;;16.91
80246;BMP280;69558;39.208;-77.226;2024-03-08T13:25:02;101048.69;;;16.89
80246;BMP280;69558;39.208;-77.226;2024-03-08T13:27:30;101042.81;;;16.87
80246;BMP280;69558;39.208;-77.226;2024-03-08T13:29:56;101044.94;;;16.83
80246;BMP280;69558;39.208;-77.226;2024-03-08T13:32:22;101047.72;;;16.81
80246;BMP280;69558;39.208;-77.226;2024-03-08T13:34:49;101053.78;;;16.82
80246;BMP280;69558;39.208;-77.226;2024-03-08T13:37:19;101069.31;;;16.83
80246;BMP280;69558;39.208;-77.226;2024-03-08T13:39:45;101064.06;;;16.83
80246;BMP280;69558;39.208;-77.226;2024-03-08T13:42:12;101063.44;;;16.81
80246;BMP280;69558;39.208;-77.226;2024-03-08T13:44:47;101058.03;;;16.83